sensor_id;sensor_type;location;lat;lon;timestamp;P1;durP1;ratioP1;P2;durP2;ratioP2
10096;SDS011;5087;42.662;23.466;2023-09-18T00:00:45;0.00;;;0.00;;
10096;SDS011;5087;42.662;23.466;2023-09-18T00:03:15;0.00;;;0.00;;
10096;SDS011;5087;42.662;23.466;2023-09-18T00:05:43;0.30;;;0.30;;
10096;SDS011;5087;42.662;23.466;2023-09-18T00:08:12;0.00;;;0.00;;
10096;SDS011;5087;42.662;23.466;2023-09-18T00:10:39;0.00;;;0.00;;
10096;SDS011;5087;42.662;23.466;2023-09-18T00:13:07;0.50;;;0.50;;
10096;SDS011;5087;42.662;23.466;2023-09-18T00:15:34;0.10;;;0.10;;
10096;SDS011;5087;42.662;23.466;2023-09-18T00:18:02;0.57;;;0.57;;
10096;SDS011;5087;42.662;23.466;2023-09-18T00:20:30;0.50;;;0.50;;
10096;SDS011;5087;42.662;23.466;2023-09-18T00:22:57;0.60;;;0.10;;
10096;SDS011;5087;42.662;23.466;2023-09-18T00:25:26;0.43;;;0.43;;
10096;SDS011;5087;42.662;23.466;2023-09-18T00:27:53;0.50;;;0.20;;
10096;SDS011;5087;42.662;23.466;2023-09-18T00:30:20;0.00;;;0.00;;
10096;SDS011;5087;42.662;23.466;2023-09-18T00:32:47;0.00;;;0.00;;
10096;SDS011;5087;42.662;23.466;2023-09-18T00:35:15;0.00;;;0.00;;
10096;SDS011;5087;42.662;23.466;2023-09-18T00:37:42;0.00;;;0.00;;
10096;SDS011;5087;42.662;23.466;2023-09-18T00:40:10;0.00;;;0.00;;
10096;SDS011;5087;42.662;23.466;2023-09-18T00:42:39;0.00;;;0.00;;
10096;SDS011;5087;42.662;23.466;2023-09-18T00:45:07;0.00;;;0.00;;
10096;SDS011;5087;42.662;23.466;2023-09-18T00:47:35;0.20;;;0.20;;
10096;SDS011;5087;42.662;23.466;2023-09-18T00:50:03;0.00;;;0.00;;
10096;SDS011;5087;42.662;23.466;2023-09-18T00:52:34;0.00;;;0.00;;
10096;SDS011;5087;42.662;23.466;2023-09-18T00:55:01;0.00;;;0.00;;
10096;SDS011;5087;42.662;23.466;2023-09-18T00:57:29;0.00;;;0.00;;
10096;SDS011;5087;42.662;23.466;2023-09-18T00:59:58;0.10;;;0.10;;
10096;SDS011;5087;42.662;23.466;2023-09-18T01:02:25;0.00;;;0.00;;
10096;SDS011;5087;42.662;23.466;2023-09-18T01:04:53;0.00;;;0.00;;
10096;SDS011;5087;42.662;23.466;2023-09-18T01:07:20;0.00;;;0.00;;
10096;SDS011;5087;42.662;23.466;2023-09-18T01:09:47;0.00;;;0.00;;
10096;SDS011;5087;42.662;23.466;2023-09-18T01:12:16;0.37;;;0.37;;
10096;SDS011;5087;42.662;23.466;2023-09-18T01:14:50;0.10;;;0.10;;
10096;SDS011;5087;42.662;23.466;2023-09-18T01:17:25;0.00;;;0.00;;
10096;SDS011;5087;42.662;23.466;2023-09-18T01:19:52;0.20;;;0.20;;
10096;SDS011;5087;42.662;23.466;2023-09-18T01:22:23;4.23;;;1.23;;
10096;SDS011;5087;42.662;23.466;2023-09-18T01:24:52;0.00;;;0.00;;
10096;SDS011;5087;42.662;23.466;2023-09-18T01:27:20;0.53;;;0.53;;
10096;SDS011;5087;42.662;23.466;2023-09-18T01:29:48;0.00;;;0.00;;
10096;SDS011;5087;42.662;23.466;2023-09-18T01:32:17;0.60;;;0.50;;
10096;SDS011;5087;42.662;23.466;2023-09-18T01:34:45;0.10;;;0.10;;
10096;SDS011;5087;42.662;23.466;2023-09-18T01:37:14;0.00;;;0.00;;
10096;SDS011;5087;42.662;23.466;2023-09-18T01:39:43;0.00;;;0.00;;
10096;SDS011;5087;42.662;23.466;2023-09-18T01:42:13;0.10;;;0.10;;
10096;SDS011;5087;42.662;23.466;2023-09-18T01:44:41;0.00;;;0.00;;
10096;SDS011;5087;42.662;23.466;2023-09-18T01:47:09;0.10;;;0.10;;
10096;SDS011;5087;42.662;23.466;2023-09-18T01:49:39;0.00;;;0.00;;
10096;SDS011;5087;42.662;23.466;2023-09-18T01:52:07;0.60;;;0.20;;
10096;SDS011;5087;42.662;23.466;2023-09-18T01:54:36;0.10;;;0.10;;
10096;SDS011;5087;42.662;23.466;2023-09-18T01:57:03;0.00;;;0.00;;
10096;SDS011;5087;42.662;23.466;2023-09-18T01:59:34;0.00;;;0.00;;
10096;SDS011;5087;42.662;23.466;2023-09-18T02:02:02;0.00;;;0.00;;
10096;SDS011;5087;42.662;23.466;2023-09-18T02:04:32;0.00;;;0.00;;
10096;SDS011;5087;42.662;23.466;2023-09-18T02:06:59;0.00;;;0.00;;
10096;SDS011;5087;42.662;23.466;2023-09-18T02:09:26;0.00;;;0.00;;
10096;SDS011;5087;42.662;23.466;2023-09-18T02:11:53;0.20;;;0.20;;
10096;SDS011;5087;42.662;23.466;2023-09-18T02:14:20;0.47;;;0.47;;
10096;SDS011;5087;42.662;23.466;2023-09-18T02:16:49;0.20;;;0.20;;
10096;SDS011;5087;42.662;23.466;2023-09-18T02:19:19;0.00;;;0.00;;
10096;SDS011;5087;42.662;23.466;2023-09-18T02:21:46;0.00;;;0.00;;
10096;SDS011;5087;42.662;23.466;2023-09-18T02:24:13;0.00;;;0.00;;
10096;SDS011;5087;42.662;23.466;2023-09-18T02:26:40;0.00;;;0.00;;
10096;SDS011;5087;42.662;23.466;2023-09-18T02:29:08;0.00;;;0.00;;
10096;SDS011;5087;42.662;23.466;2023-09-18T02:31:37;0.00;;;0.00;;
10096;SDS011;5087;42.662;23.466;2023-09-18T02:34:06;0.00;;;0.00;;
10096;SDS011;5087;42.662;23.466;2023-09-18T02:36:34;0.00;;;0.00;;
10096;SDS011;5087;42.662;23.466;2023-09-18T02:39:01;0.00;;;0.00;;
10096;SDS011;5087;42.662;23.466;2023-09-18T02:41:28;0.10;;;0.10;;
10096;SDS011;5087;42.662;23.466;2023-09-18T02:43:56;0.03;;;0.03;;
10096;SDS011;5087;42.662;23.466;2023-09-18T02:46:23;0.00;;;0.00;;
10096;SDS011;5087;42.662;23.466;2023-09-18T02:48:50;0.00;;;0.00;;
10096;SDS011;5087;42.662;23.466;2023-09-18T02:51:20;0.00;;;0.00;;
10096;SDS011;5087;42.662;23.466;2023-09-18T02:53:47;0.00;;;0.00;;
10096;SDS011;5087;42.662;23.466;2023-09-18T02:56:14;0.00;;;0.00;;
10096;SDS011;5087;42.662;23.466;2023-09-18T02:58:41;0.00;;;0.00;;
10096;SDS011;5087;42.662;23.466;2023-09-18T03:01:09;0.03;;;0.03;;
10096;SDS011;5087;42.662;23.466;2023-09-18T03:03:39;0.00;;;0.00;;
10096;SDS011;5087;42.662;23.466;2023-09-18T03:06:07;0.00;;;0.00;;
10096;SDS011;5087;42.662;23.466;2023-09-18T03:08:39;0.00;;;0.00;;
10096;SDS011;5087;42.662;23.466;2023-09-18T03:11:10;0.00;;;0.00;;
10096;SDS011;5087;42.662;23.466;2023-09-18T03:13:42;0.00;;;0.00;;
10096;SDS011;5087;42.662;23.466;2023-09-18T03:16:12;0.00;;;0.00;;
10096;SDS011;5087;42.662;23.466;2023-09-18T03:18:40;0.00;;;0.00;;
10096;SDS011;5087;42.662;23.466;2023-09-18T03:21:08;0.00;;;0.00;;
10096;SDS011;5087;42.662;23.466;2023-09-18T03:23:35;0.00;;;0.00;;
10096;SDS011;5087;42.662;23.466;2023-09-18T03:26:04;0.00;;;0.00;;
10096;SDS011;5087;42.662;23.466;2023-09-18T03:28:31;0.00;;;0.00;;
10096;SDS011;5087;42.662;23.466;2023-09-18T03:30:58;0.20;;;0.20;;
10096;SDS011;5087;42.662;23.466;2023-09-18T03:33:31;0.53;;;0.53;;
10096;SDS011;5087;42.662;23.466;2023-09-18T03:35:59;0.00;;;0.00;;
10096;SDS011;5087;42.662;23.466;2023-09-18T03:38:29;0.00;;;0.00;;
10096;SDS011;5087;42.662;23.466;2023-09-18T03:40:59;0.00;;;0.00;;
10096;SDS011;5087;42.662;23.466;2023-09-18T03:43:27;0.03;;;0.03;;
10096;SDS011;5087;42.662;23.466;2023-09-18T03:45:55;0.00;;;0.00;;
10096;SDS011;5087;42.662;23.466;2023-09-18T03:48:29;0.07;;;0.07;;
10096;SDS011;5087;42.662;23.466;2023-09-18T03:51:01;0.00;;;0.00;;
10096;SDS011;5087;42.662;23.466;2023-09-18T03:53:28;0.00;;;0.00;;
10096;SDS011;5087;42.662;23.466;2023-09-18T03:55:56;0.00;;;0.00;;
10096;SDS011;5087;42.662;23.466;2023-09-18T03:58:23;0.00;;;0.00;;
10096;SDS011;5087;42.662;23.466;2023-09-18T04:00:53;0.00;;;0.00;;
10096;SDS011;5087;42.662;23.466;2023-09-18T04:03:21;0.00;;;0.00;;
10096;SDS011;5087;42.662;23.466;2023-09-18T04:05:48;0.37;;;0.37;;
10096;SDS011;5087;42.662;23.466;2023-09-18T04:08:15;0.00;;;0.00;;
10096;SDS011;5087;42.662;23.466;2023-09-18T04:10:42;0.00;;;0.00;;
10096;SDS011;5087;42.662;23.466;2023-09-18T04:13:10;0.00;;;0.00;;
10096;SDS011;5087;42.662;23.466;2023-09-18T04:15:37;0.00;;;0.00;;
10096;SDS011;5087;42.662;23.466;2023-09-18T04:18:08;0.00;;;0.00;;
10096;SDS011;5087;42.662;23.466;2023-09-18T04:20:35;0.00;;;0.00;;
10096;SDS011;5087;42.662;23.466;2023-09-18T04:23:19;0.03;;;0.03;;
10096;SDS011;5087;42.662;23.466;2023-09-18T04:25:48;0.00;;;0.00;;
10096;SDS011;5087;42.662;23.466;2023-09-18T04:28:21;0.00;;;0.00;;
10096;SDS011;5087;42.662;23.466;2023-09-18T04:30:49;0.00;;;0.00;;
10096;SDS011;5087;42.662;23.466;2023-09-18T04:33:21;0.93;;;0.93;;
10096;SDS011;5087;42.662;23.466;2023-09-18T04:35:49;0.13;;;0.13;;
10096;SDS011;5087;42.662;23.466;2023-09-18T04:38:18;0.00;;;0.00;;
10096;SDS011;5087;42.662;23.466;2023-09-18T04:40:49;0.00;;;0.00;;
10096;SDS011;5087;42.662;23.466;2023-09-18T04:43:17;0.10;;;0.10;;
10096;SDS011;5087;42.662;23.466;2023-09-18T04:45:44;0.00;;;0.00;;
10096;SDS011;5087;42.662;23.466;2023-09-18T04:48:13;0.20;;;0.20;;
10096;SDS011;5087;42.662;23.466;2023-09-18T04:50:42;0.00;;;0.00;;
10096;SDS011;5087;42.662;23.466;2023-09-18T04:53:10;0.00;;;0.00;;
10096;SDS011;5087;42.662;23.466;2023-09-18T04:55:37;0.00;;;0.00;;
10096;SDS011;5087;42.662;23.466;2023-09-18T04:58:05;0.20;;;0.20;;
10096;SDS011;5087;42.662;23.466;2023-09-18T05:00:32;0.00;;;0.00;;
10096;SDS011;5087;42.662;23.466;2023-09-18T05:03:00;0.30;;;0.30;;
10096;SDS011;5087;42.662;23.466;2023-09-18T05:05:29;0.20;;;0.20;;
10096;SDS011;5087;42.662;23.466;2023-09-18T05:07:58;0.17;;;0.17;;
10096;SDS011;5087;42.662;23.466;2023-09-18T05:10:25;1.70;;;0.40;;
10096;SDS011;5087;42.662;23.466;2023-09-18T05:12:52;0.00;;;0.00;;
10096;SDS011;5087;42.662;23.466;2023-09-18T05:15:23;0.00;;;0.00;;
10096;SDS011;5087;42.662;23.466;2023-09-18T05:17:51;0.00;;;0.00;;
10096;SDS011;5087;42.662;23.466;2023-09-18T05:20:22;0.00;;;0.00;;
10096;SDS011;5087;42.662;23.466;2023-09-18T05:22:50;0.00;;;0.00;;
10096;SDS011;5087;42.662;23.466;2023-09-18T05:25:22;0.10;;;0.10;;
10096;SDS011;5087;42.662;23.466;2023-09-18T05:27:50;0.00;;;0.00;;
10096;SDS011;5087;42.662;23.466;2023-09-18T05:30:23;0.00;;;0.00;;
10096;SDS011;5087;42.662;23.466;2023-09-18T05:32:53;0.13;;;0.13;;
10096;SDS011;5087;42.662;23.466;2023-09-18T05:35:21;0.00;;;0.00;;
10096;SDS011;5087;42.662;23.466;2023-09-18T05:37:48;0.10;;;0.10;;
10096;SDS011;5087;42.662;23.466;2023-09-18T05:40:21;0.10;;;0.10;;
10096;SDS011;5087;42.662;23.466;2023-09-18T05:42:48;0.00;;;0.00;;
10096;SDS011;5087;42.662;23.466;2023-09-18T05:45:16;0.10;;;0.10;;
10096;SDS011;5087;42.662;23.466;2023-09-18T05:47:43;0.10;;;0.10;;
10096;SDS011;5087;42.662;23.466;2023-09-18T05:50:11;0.10;;;0.10;;
10096;SDS011;5087;42.662;23.466;2023-09-18T05:52:41;0.10;;;0.10;;
10096;SDS011;5087;42.662;23.466;2023-09-18T05:55:09;0.10;;;0.10;;
10096;SDS011;5087;42.662;23.466;2023-09-18T05:57:38;0.30;;;0.30;;
10096;SDS011;5087;42.662;23.466;2023-09-18T06:00:06;0.10;;;0.10;;
10096;SDS011;5087;42.662;23.466;2023-09-18T06:02:38;0.20;;;0.20;;
10096;SDS011;5087;42.662;23.466;2023-09-18T06:05:06;0.20;;;0.20;;
10096;SDS011;5087;42.662;23.466;2023-09-18T06:07:36;0.30;;;0.30;;
10096;SDS011;5087;42.662;23.466;2023-09-18T06:10:04;0.20;;;0.20;;
10096;SDS011;5087;42.662;23.466;2023-09-18T06:12:32;0.20;;;0.20;;
10096;SDS011;5087;42.662;23.466;2023-09-18T06:15:01;0.20;;;0.20;;
10096;SDS011;5087;42.662;23.466;2023-09-18T06:17:29;0.30;;;0.30;;
10096;SDS011;5087;42.662;23.466;2023-09-18T06:19:56;0.20;;;0.20;;
10096;SDS011;5087;42.662;23.466;2023-09-18T06:22:24;0.20;;;0.20;;
10096;SDS011;5087;42.662;23.466;2023-09-18T06:24:54;0.70;;;0.70;;
10096;SDS011;5087;42.662;23.466;2023-09-18T06:27:21;0.77;;;0.77;;
10096;SDS011;5087;42.662;23.466;2023-09-18T06:29:49;0.30;;;0.30;;
10096;SDS011;5087;42.662;23.466;2023-09-18T06:32:17;0.30;;;0.30;;
10096;SDS011;5087;42.662;23.466;2023-09-18T06:34:45;0.47;;;0.47;;
10096;SDS011;5087;42.662;23.466;2023-09-18T06:37:12;0.30;;;0.30;;
10096;SDS011;5087;42.662;23.466;2023-09-18T06:39:41;0.40;;;0.40;;
10096;SDS011;5087;42.662;23.466;2023-09-18T06:42:08;0.77;;;0.73;;
10096;SDS011;5087;42.662;23.466;2023-09-18T06:44:35;0.33;;;0.33;;
10096;SDS011;5087;42.662;23.466;2023-09-18T06:47:03;0.77;;;0.77;;
10096;SDS011;5087;42.662;23.466;2023-09-18T06:49:32;0.40;;;0.40;;
10096;SDS011;5087;42.662;23.466;2023-09-18T06:51:59;0.50;;;0.50;;
10096;SDS011;5087;42.662;23.466;2023-09-18T06:54:27;0.73;;;0.73;;
10096;SDS011;5087;42.662;23.466;2023-09-18T06:56:57;0.70;;;0.70;;
10096;SDS011;5087;42.662;23.466;2023-09-18T06:59:24;0.50;;;0.50;;
10096;SDS011;5087;42.662;23.466;2023-09-18T07:01:50;0.63;;;0.63;;
10096;SDS011;5087;42.662;23.466;2023-09-18T07:04:21;0.53;;;0.53;;
10096;SDS011;5087;42.662;23.466;2023-09-18T07:06:50;0.50;;;0.50;;
10096;SDS011;5087;42.662;23.466;2023-09-18T07:09:18;0.60;;;0.60;;
10096;SDS011;5087;42.662;23.466;2023-09-18T07:11:48;1.10;;;1.10;;
10096;SDS011;5087;42.662;23.466;2023-09-18T07:14:16;0.60;;;0.60;;
10096;SDS011;5087;42.662;23.466;2023-09-18T07:16:43;0.70;;;0.70;;
10096;SDS011;5087;42.662;23.466;2023-09-18T07:19:10;0.60;;;0.60;;
10096;SDS011;5087;42.662;23.466;2023-09-18T07:21:42;0.60;;;0.60;;
10096;SDS011;5087;42.662;23.466;2023-09-18T07:24:11;0.70;;;0.70;;
10096;SDS011;5087;42.662;23.466;2023-09-18T07:26:45;0.63;;;0.63;;
10096;SDS011;5087;42.662;23.466;2023-09-18T07:29:13;0.60;;;0.60;;
10096;SDS011;5087;42.662;23.466;2023-09-18T07:31:41;0.50;;;0.50;;
10096;SDS011;5087;42.662;23.466;2023-09-18T07:34:08;1.53;;;1.07;;
10096;SDS011;5087;42.662;23.466;2023-09-18T07:36:35;0.90;;;0.90;;
10096;SDS011;5087;42.662;23.466;2023-09-18T07:39:02;0.60;;;0.60;;
10096;SDS011;5087;42.662;23.466;2023-09-18T07:41:35;0.60;;;0.60;;
10096;SDS011;5087;42.662;23.466;2023-09-18T07:44:03;0.70;;;0.70;;
10096;SDS011;5087;42.662;23.466;2023-09-18T07:46:30;0.73;;;0.73;;
10096;SDS011;5087;42.662;23.466;2023-09-18T07:48:57;0.60;;;0.60;;
10096;SDS011;5087;42.662;23.466;2023-09-18T07:51:25;0.63;;;0.63;;
10096;SDS011;5087;42.662;23.466;2023-09-18T07:53:52;0.60;;;0.60;;
10096;SDS011;5087;42.662;23.466;2023-09-18T07:56:22;0.60;;;0.60;;
10096;SDS011;5087;42.662;23.466;2023-09-18T07:58:53;0.80;;;0.80;;
10096;SDS011;5087;42.662;23.466;2023-09-18T08:01:20;0.60;;;0.60;;
10096;SDS011;5087;42.662;23.466;2023-09-18T08:03:48;0.60;;;0.60;;
10096;SDS011;5087;42.662;23.466;2023-09-18T08:06:15;0.80;;;0.80;;
10096;SDS011;5087;42.662;23.466;2023-09-18T08:08:44;0.70;;;0.70;;
10096;SDS011;5087;42.662;23.466;2023-09-18T08:11:12;0.80;;;0.80;;
10096;SDS011;5087;42.662;23.466;2023-09-18T08:13:39;0.80;;;0.80;;
10096;SDS011;5087;42.662;23.466;2023-09-18T08:16:08;0.80;;;0.80;;
10096;SDS011;5087;42.662;23.466;2023-09-18T08:18:35;0.60;;;0.60;;
10096;SDS011;5087;42.662;23.466;2023-09-18T08:21:06;0.70;;;0.70;;
10096;SDS011;5087;42.662;23.466;2023-09-18T08:23:34;0.70;;;0.70;;
10096;SDS011;5087;42.662;23.466;2023-09-18T08:26:01;1.00;;;1.00;;
10096;SDS011;5087;42.662;23.466;2023-09-18T08:28:29;0.60;;;0.60;;
10096;SDS011;5087;42.662;23.466;2023-09-18T08:30:56;1.10;;;1.10;;
10096;SDS011;5087;42.662;23.466;2023-09-18T08:33:26;0.60;;;0.60;;
10096;SDS011;5087;42.662;23.466;2023-09-18T08:35:53;0.50;;;0.50;;
10096;SDS011;5087;42.662;23.466;2023-09-18T08:38:20;1.07;;;1.07;;
10096;SDS011;5087;42.662;23.466;2023-09-18T08:40:48;1.07;;;1.07;;
10096;SDS011;5087;42.662;23.466;2023-09-18T08:43:15;0.43;;;0.43;;
10096;SDS011;5087;42.662;23.466;2023-09-18T08:45:46;0.40;;;0.40;;
10096;SDS011;5087;42.662;23.466;2023-09-18T08:48:21;0.60;;;0.60;;
10096;SDS011;5087;42.662;23.466;2023-09-18T08:50:50;0.50;;;0.50;;
10096;SDS011;5087;42.662;23.466;2023-09-18T08:53:21;0.70;;;0.70;;
10096;SDS011;5087;42.662;23.466;2023-09-18T08:55:48;0.40;;;0.40;;
10096;SDS011;5087;42.662;23.466;2023-09-18T08:58:16;0.50;;;0.50;;
10096;SDS011;5087;42.662;23.466;2023-09-18T09:00:47;0.57;;;0.57;;
10096;SDS011;5087;42.662;23.466;2023-09-18T09:03:15;0.47;;;0.47;;
10096;SDS011;5087;42.662;23.466;2023-09-18T09:05:42;0.47;;;0.47;;
10096;SDS011;5087;42.662;23.466;2023-09-18T09:08:11;0.50;;;0.50;;
10096;SDS011;5087;42.662;23.466;2023-09-18T09:10:39;0.47;;;0.47;;
10096;SDS011;5087;42.662;23.466;2023-09-18T09:13:07;0.40;;;0.40;;
10096;SDS011;5087;42.662;23.466;2023-09-18T09:15:35;0.50;;;0.50;;
10096;SDS011;5087;42.662;23.466;2023-09-18T09:18:12;0.40;;;0.40;;
10096;SDS011;5087;42.662;23.466;2023-09-18T09:20:40;0.40;;;0.40;;
10096;SDS011;5087;42.662;23.466;2023-09-18T09:23:08;0.37;;;0.37;;
10096;SDS011;5087;42.662;23.466;2023-09-18T09:25:37;0.30;;;0.30;;
10096;SDS011;5087;42.662;23.466;2023-09-18T09:28:05;0.90;;;0.90;;
10096;SDS011;5087;42.662;23.466;2023-09-18T09:30:34;0.40;;;0.40;;
10096;SDS011;5087;42.662;23.466;2023-09-18T09:33:03;0.27;;;0.27;;
10096;SDS011;5087;42.662;23.466;2023-09-18T09:35:34;0.30;;;0.30;;
10096;SDS011;5087;42.662;23.466;2023-09-18T09:38:07;0.50;;;0.50;;
10096;SDS011;5087;42.662;23.466;2023-09-18T09:40:35;0.30;;;0.30;;
10096;SDS011;5087;42.662;23.466;2023-09-18T09:43:07;0.40;;;0.40;;
10096;SDS011;5087;42.662;23.466;2023-09-18T09:45:38;0.30;;;0.30;;
10096;SDS011;5087;42.662;23.466;2023-09-18T09:48:07;0.20;;;0.20;;
10096;SDS011;5087;42.662;23.466;2023-09-18T09:50:43;0.30;;;0.30;;
10096;SDS011;5087;42.662;23.466;2023-09-18T09:53:12;0.40;;;0.40;;
10096;SDS011;5087;42.662;23.466;2023-09-18T09:55:41;0.20;;;0.20;;
10096;SDS011;5087;42.662;23.466;2023-09-18T09:58:08;0.30;;;0.30;;
10096;SDS011;5087;42.662;23.466;2023-09-18T10:00:40;0.30;;;0.30;;
10096;SDS011;5087;42.662;23.466;2023-09-18T10:03:11;0.20;;;0.20;;
10096;SDS011;5087;42.662;23.466;2023-09-18T10:05:40;0.63;;;0.63;;
10096;SDS011;5087;42.662;23.466;2023-09-18T10:08:10;0.60;;;0.60;;
10096;SDS011;5087;42.662;23.466;2023-09-18T10:10:43;0.20;;;0.20;;
10096;SDS011;5087;42.662;23.466;2023-09-18T10:13:26;0.20;;;0.20;;
10096;SDS011;5087;42.662;23.466;2023-09-18T10:15:58;0.23;;;0.23;;
10096;SDS011;5087;42.662;23.466;2023-09-18T10:18:28;0.20;;;0.20;;
10096;SDS011;5087;42.662;23.466;2023-09-18T10:21:06;0.20;;;0.20;;
10096;SDS011;5087;42.662;23.466;2023-09-18T10:23:46;0.13;;;0.13;;
10096;SDS011;5087;42.662;23.466;2023-09-18T10:26:25;0.20;;;0.20;;
10096;SDS011;5087;42.662;23.466;2023-09-18T10:28:55;0.30;;;0.30;;
10096;SDS011;5087;42.662;23.466;2023-09-18T10:31:28;0.20;;;0.20;;
10096;SDS011;5087;42.662;23.466;2023-09-18T10:33:57;0.10;;;0.10;;
10096;SDS011;5087;42.662;23.466;2023-09-18T10:36:27;0.10;;;0.10;;
10096;SDS011;5087;42.662;23.466;2023-09-18T10:38:55;0.20;;;0.20;;
10096;SDS011;5087;42.662;23.466;2023-09-18T10:41:28;0.20;;;0.20;;
10096;SDS011;5087;42.662;23.466;2023-09-18T10:43:56;0.17;;;0.17;;
10096;SDS011;5087;42.662;23.466;2023-09-18T10:46:26;0.10;;;0.10;;
10096;SDS011;5087;42.662;23.466;2023-09-18T10:48:53;0.10;;;0.10;;
10096;SDS011;5087;42.662;23.466;2023-09-18T10:51:22;0.20;;;0.20;;
10096;SDS011;5087;42.662;23.466;2023-09-18T10:53:52;0.10;;;0.10;;
10096;SDS011;5087;42.662;23.466;2023-09-18T10:56:20;0.33;;;0.33;;
10096;SDS011;5087;42.662;23.466;2023-09-18T10:58:49;0.23;;;0.23;;
10096;SDS011;5087;42.662;23.466;2023-09-18T11:01:23;0.10;;;0.10;;
10096;SDS011;5087;42.662;23.466;2023-09-18T11:03:52;0.13;;;0.13;;
10096;SDS011;5087;42.662;23.466;2023-09-18T11:06:28;0.10;;;0.10;;
10096;SDS011;5087;42.662;23.466;2023-09-18T11:09:26;0.20;;;0.20;;
10096;SDS011;5087;42.662;23.466;2023-09-18T11:12:00;0.10;;;0.10;;
10096;SDS011;5087;42.662;23.466;2023-09-18T11:14:42;0.10;;;0.10;;
10096;SDS011;5087;42.662;23.466;2023-09-18T11:17:33;0.40;;;0.40;;
10096;SDS011;5087;42.662;23.466;2023-09-18T11:20:06;0.83;;;0.43;;
10096;SDS011;5087;42.662;23.466;2023-09-18T11:22:37;0.20;;;0.20;;
10096;SDS011;5087;42.662;23.466;2023-09-18T11:27:56;0.40;;;0.40;;
10096;SDS011;5087;42.662;23.466;2023-09-18T11:30:25;0.20;;;0.20;;
10096;SDS011;5087;42.662;23.466;2023-09-18T11:32:53;0.10;;;0.10;;
10096;SDS011;5087;42.662;23.466;2023-09-18T11:35:21;0.10;;;0.10;;
10096;SDS011;5087;42.662;23.466;2023-09-18T11:38:02;0.20;;;0.20;;
10096;SDS011;5087;42.662;23.466;2023-09-18T11:40:32;0.17;;;0.17;;
10096;SDS011;5087;42.662;23.466;2023-09-18T11:45:52;2.90;;;0.57;;
10096;SDS011;5087;42.662;23.466;2023-09-18T11:48:21;0.20;;;0.20;;
10096;SDS011;5087;42.662;23.466;2023-09-18T11:50:53;0.40;;;0.40;;
10096;SDS011;5087;42.662;23.466;2023-09-18T11:53:20;0.20;;;0.20;;
10096;SDS011;5087;42.662;23.466;2023-09-18T11:55:50;0.20;;;0.20;;
10096;SDS011;5087;42.662;23.466;2023-09-18T11:58:18;0.20;;;0.20;;
10096;SDS011;5087;42.662;23.466;2023-09-18T12:00:49;0.60;;;0.60;;
10096;SDS011;5087;42.662;23.466;2023-09-18T12:03:18;0.20;;;0.20;;
10096;SDS011;5087;42.662;23.466;2023-09-18T12:05:53;0.17;;;0.17;;
10096;SDS011;5087;42.662;23.466;2023-09-18T12:08:23;0.20;;;0.20;;
10096;SDS011;5087;42.662;23.466;2023-09-18T12:10:54;0.20;;;0.20;;
10096;SDS011;5087;42.662;23.466;2023-09-18T12:13:23;0.20;;;0.20;;
10096;SDS011;5087;42.662;23.466;2023-09-18T12:15:55;0.20;;;0.20;;
10096;SDS011;5087;42.662;23.466;2023-09-18T12:18:31;0.20;;;0.20;;
10096;SDS011;5087;42.662;23.466;2023-09-18T12:21:01;0.20;;;0.20;;
10096;SDS011;5087;42.662;23.466;2023-09-18T12:23:36;0.40;;;0.40;;
10096;SDS011;5087;42.662;23.466;2023-09-18T12:26:05;0.10;;;0.10;;
10096;SDS011;5087;42.662;23.466;2023-09-18T12:28:33;0.10;;;0.10;;
10096;SDS011;5087;42.662;23.466;2023-09-18T12:31:02;0.10;;;0.10;;
10096;SDS011;5087;42.662;23.466;2023-09-18T12:33:35;0.67;;;0.50;;
10096;SDS011;5087;42.662;23.466;2023-09-18T12:36:06;0.10;;;0.10;;
10096;SDS011;5087;42.662;23.466;2023-09-18T12:38:34;0.20;;;0.20;;
10096;SDS011;5087;42.662;23.466;2023-09-18T12:41:02;0.20;;;0.20;;
10096;SDS011;5087;42.662;23.466;2023-09-18T12:43:36;0.20;;;0.20;;
10096;SDS011;5087;42.662;23.466;2023-09-18T12:46:08;0.20;;;0.20;;
10096;SDS011;5087;42.662;23.466;2023-09-18T12:48:40;0.30;;;0.30;;
10096;SDS011;5087;42.662;23.466;2023-09-18T12:51:11;0.10;;;0.10;;
10096;SDS011;5087;42.662;23.466;2023-09-18T12:53:39;0.10;;;0.10;;
10096;SDS011;5087;42.662;23.466;2023-09-18T12:56:07;0.20;;;0.20;;
10096;SDS011;5087;42.662;23.466;2023-09-18T12:58:35;0.30;;;0.30;;
10096;SDS011;5087;42.662;23.466;2023-09-18T13:01:07;0.30;;;0.30;;
10096;SDS011;5087;42.662;23.466;2023-09-18T13:03:44;0.10;;;0.10;;
10096;SDS011;5087;42.662;23.466;2023-09-18T13:06:14;0.10;;;0.10;;
10096;SDS011;5087;42.662;23.466;2023-09-18T13:08:44;0.10;;;0.10;;
10096;SDS011;5087;42.662;23.466;2023-09-18T13:11:12;0.10;;;0.10;;
10096;SDS011;5087;42.662;23.466;2023-09-18T13:13:41;0.20;;;0.20;;
10096;SDS011;5087;42.662;23.466;2023-09-18T13:16:09;0.10;;;0.10;;
10096;SDS011;5087;42.662;23.466;2023-09-18T13:18:37;0.37;;;0.37;;
10096;SDS011;5087;42.662;23.466;2023-09-18T13:21:10;0.10;;;0.10;;
10096;SDS011;5087;42.662;23.466;2023-09-18T13:23:39;0.10;;;0.10;;
10096;SDS011;5087;42.662;23.466;2023-09-18T13:26:07;0.20;;;0.20;;
10096;SDS011;5087;42.662;23.466;2023-09-18T13:28:36;0.10;;;0.10;;
10096;SDS011;5087;42.662;23.466;2023-09-18T13:31:05;0.10;;;0.10;;
10096;SDS011;5087;42.662;23.466;2023-09-18T13:33:33;0.10;;;0.10;;
10096;SDS011;5087;42.662;23.466;2023-09-18T13:36:04;0.20;;;0.20;;
10096;SDS011;5087;42.662;23.466;2023-09-18T13:38:33;0.10;;;0.10;;
10096;SDS011;5087;42.662;23.466;2023-09-18T13:41:01;0.47;;;0.47;;
10096;SDS011;5087;42.662;23.466;2023-09-18T13:43:30;0.10;;;0.10;;
10096;SDS011;5087;42.662;23.466;2023-09-18T13:46:00;0.10;;;0.10;;
10096;SDS011;5087;42.662;23.466;2023-09-18T13:48:29;0.10;;;0.10;;
10096;SDS011;5087;42.662;23.466;2023-09-18T13:50:58;0.10;;;0.10;;
10096;SDS011;5087;42.662;23.466;2023-09-18T13:53:27;0.40;;;0.40;;
10096;SDS011;5087;42.662;23.466;2023-09-18T13:55:56;0.10;;;0.10;;
10096;SDS011;5087;42.662;23.466;2023-09-18T13:58:23;12.00;;;0.83;;
10096;SDS011;5087;42.662;23.466;2023-09-18T14:00:54;0.50;;;0.50;;
10096;SDS011;5087;42.662;23.466;2023-09-18T14:03:22;0.10;;;0.10;;
10096;SDS011;5087;42.662;23.466;2023-09-18T14:05:51;0.13;;;0.13;;
10096;SDS011;5087;42.662;23.466;2023-09-18T14:08:21;0.50;;;0.50;;
10096;SDS011;5087;42.662;23.466;2023-09-18T14:10:53;0.20;;;0.20;;
10096;SDS011;5087;42.662;23.466;2023-09-18T14:13:22;0.20;;;0.20;;
10096;SDS011;5087;42.662;23.466;2023-09-18T14:15:49;0.40;;;0.40;;
10096;SDS011;5087;42.662;23.466;2023-09-18T14:18:18;0.20;;;0.20;;
10096;SDS011;5087;42.662;23.466;2023-09-18T14:20:45;0.93;;;0.93;;
10096;SDS011;5087;42.662;23.466;2023-09-18T14:23:12;0.20;;;0.20;;
10096;SDS011;5087;42.662;23.466;2023-09-18T14:25:39;0.50;;;0.50;;
10096;SDS011;5087;42.662;23.466;2023-09-18T14:28:07;0.50;;;0.50;;
10096;SDS011;5087;42.662;23.466;2023-09-18T14:30:35;0.20;;;0.20;;
10096;SDS011;5087;42.662;23.466;2023-09-18T14:33:03;0.20;;;0.20;;
10096;SDS011;5087;42.662;23.466;2023-09-18T14:35:30;0.30;;;0.30;;
10096;SDS011;5087;42.662;23.466;2023-09-18T14:37:57;1.23;;;0.47;;
10096;SDS011;5087;42.662;23.466;2023-09-18T14:40:25;0.30;;;0.30;;
10096;SDS011;5087;42.662;23.466;2023-09-18T14:42:52;0.20;;;0.20;;
10096;SDS011;5087;42.662;23.466;2023-09-18T14:45:20;0.20;;;0.20;;
10096;SDS011;5087;42.662;23.466;2023-09-18T14:47:50;0.20;;;0.20;;
10096;SDS011;5087;42.662;23.466;2023-09-18T14:50:18;0.20;;;0.20;;
10096;SDS011;5087;42.662;23.466;2023-09-18T14:52:46;0.20;;;0.20;;
10096;SDS011;5087;42.662;23.466;2023-09-18T14:55:13;0.13;;;0.13;;
10096;SDS011;5087;42.662;23.466;2023-09-18T14:57:41;0.10;;;0.10;;
10096;SDS011;5087;42.662;23.466;2023-09-18T15:00:08;0.20;;;0.20;;
10096;SDS011;5087;42.662;23.466;2023-09-18T15:02:38;0.10;;;0.10;;
10096;SDS011;5087;42.662;23.466;2023-09-18T15:05:07;0.17;;;0.17;;